Time;durP1;ratioP1;P1;durP2;ratioP2;P2;SDS_P1;SDS_P2;PMS_P1;PMS_P2;Temp;Humidity;BMP_temperature;BMP_pressure;BME280_temperature;BME280_humidity;BME280_pressure;Samples;Min_cycle;Max_cycle;Signal;HPM_P1;HPM_P2
2021/12/18 00:00:39;;;;;;;4.75;1.25;;;;;;;;;;5063869;28;20487;-89
2021/12/18 00:03:06;;;;;;;5.22;1.75;;;;;;;;;;5074485;28;20055;-89
2021/12/18 00:05:32;;;;;;;3.30;1.13;;;;;;;;;;5074419;28;20032;-89
2021/12/18 00:08:12;;;;;;;5.10;1.40;;;;;;;;;;5074387;28;20106;-89
2021/12/18 00:11:00;;;;;;;3.88;0.90;;;;;;;;;;5068734;28;20039;-90
2021/12/18 00:13:27;;;;;;;5.65;1.42;;;;;;;;;;5100554;28;20075;-88
2021/12/18 00:15:53;;;;;;;4.53;1.40;;;;;;;;;;5094385;28;20032;-89
2021/12/18 00:21:24;;;;;;;4.68;1.65;;;;;;;;;;5109498;28;20030;-89
2021/12/18 00:27:17;;;;;;;8.20;1.90;;;;;;;;;;5109992;28;20026;-88
2021/12/18 00:29:43;;;;;;;4.80;1.67;;;;;;;;;;5114699;28;20086;-89
2021/12/18 00:32:09;;;;;;;6.53;2.00;;;;;;;;;;5114568;28;20122;-89
2021/12/18 00:34:39;;;;;;;8.43;1.90;;;;;;;;;;5097108;28;20032;-89
2021/12/18 00:37:05;;;;;;;6.65;1.55;;;;;;;;;;5110557;28;20092;-89
2021/12/18 00:39:33;;;;;;;7.95;1.77;;;;;;;;;;5114959;28;20039;-88
2021/12/18 00:42:38;;;;;;;6.93;2.00;;;;;;;;;;5105180;28;20123;-88
2021/12/18 00:45:35;;;;;;;6.40;1.88;;;;;;;;;;5094001;28;20494;-90
2021/12/18 00:48:01;;;;;;;5.82;2.35;;;;;;;;;;5099444;28;20130;-88
2021/12/18 00:50:31;;;;;;;8.80;2.17;;;;;;;;;;5095128;28;20065;-88
2021/12/18 00:53:01;;;;;;;10.45;3.67;;;;;;;;;;5111270;28;20471;-88
2021/12/18 00:55:27;;;;;;;9.98;3.35;;;;;;;;;;5096514;28;20122;-89
2021/12/18 00:57:54;;;;;;;11.50;3.60;;;;;;;;;;5109840;28;20484;-89
2021/12/18 01:00:41;;;;;;;11.02;3.17;;;;;;;;;;5096678;28;20482;-88
2021/12/18 01:03:16;;;;;;;12.95;4.75;;;;;;;;;;5098375;28;20093;-88
2021/12/18 01:05:43;;;;;;;7.80;2.92;;;;;;;;;;5092255;28;20118;-88
2021/12/18 01:08:09;;;;;;;10.43;2.80;;;;;;;;;;5108496;28;20493;-89
2021/12/18 01:13:18;;;;;;;12.80;4.28;;;;;;;;;;5073906;28;20094;-88
2021/12/18 01:15:53;;;;;;;14.13;4.40;;;;;;;;;;5072858;28;20036;-87
2021/12/18 01:23:53;;;;;;;11.43;3.65;;;;;;;;;;5067173;28;20051;-87
2021/12/18 01:26:19;;;;;;;10.35;3.80;;;;;;;;;;5073190;28;20123;-89
2021/12/18 01:28:51;;;;;;;6.55;2.55;;;;;;;;;;5072974;28;20037;-88
2021/12/18 01:31:20;;;;;;;10.13;3.25;;;;;;;;;;5072807;28;20072;-88
2021/12/18 01:33:46;;;;;;;9.65;3.08;;;;;;;;;;5072295;28;20041;-88
2021/12/18 01:36:13;;;;;;;7.72;2.58;;;;;;;;;;5073048;28;20039;-87
2021/12/18 01:38:46;;;;;;;8.85;2.10;;;;;;;;;;5072706;28;20032;-88
2021/12/18 01:41:14;;;;;;;9.05;1.95;;;;;;;;;;5072565;28;20037;-89
2021/12/18 01:46:47;;;;;;;8.70;2.30;;;;;;;;;;5057039;28;20039;-88
2021/12/18 01:54:57;;;;;;;11.15;3.92;;;;;;;;;;5073524;28;20468;-88
2021/12/18 01:57:32;;;;;;;11.02;3.75;;;;;;;;;;5072617;28;20029;-87
2021/12/18 02:00:01;;;;;;;11.10;3.58;;;;;;;;;;5071689;28;20047;-88
2021/12/18 02:02:35;;;;;;;12.95;3.60;;;;;;;;;;5072300;28;20056;-87
2021/12/18 02:05:01;;;;;;;19.00;4.93;;;;;;;;;;5072029;28;20492;-88
2021/12/18 02:07:35;;;;;;;17.00;4.88;;;;;;;;;;5072134;28;20044;-89
2021/12/18 02:10:09;;;;;;;9.02;3.40;;;;;;;;;;5072258;28;20521;-89
2021/12/18 02:13:09;;;;;;;11.75;3.40;;;;;;;;;;5107283;28;20035;-91
2021/12/18 02:21:29;;;;;;;8.65;2.83;;;;;;;;;;5092113;28;20433;-85
2021/12/18 02:23:57;;;;;;;11.57;4.20;;;;;;;;;;5093755;28;20035;-84
2021/12/18 02:26:48;;;;;;;11.30;3.05;;;;;;;;;;5094664;28;20425;-84
2021/12/18 02:29:16;;;;;;;7.15;2.90;;;;;;;;;;5057456;28;20062;-85
2021/12/18 02:31:43;;;;;;;8.43;3.08;;;;;;;;;;5094256;28;20050;-85
2021/12/18 02:34:16;;;;;;;9.48;2.90;;;;;;;;;;5094790;28;20065;-84
2021/12/18 02:36:49;;;;;;;9.75;3.10;;;;;;;;;;5103500;28;20051;-84
2021/12/18 02:41:56;;;;;;;8.95;2.80;;;;;;;;;;5112811;28;20078;-85
2021/12/18 02:44:25;;;;;;;8.73;2.92;;;;;;;;;;5106526;28;20441;-86
2021/12/18 02:46:56;;;;;;;13.93;3.90;;;;;;;;;;5092202;28;20039;-85
2021/12/18 02:49:22;;;;;;;12.50;3.97;;;;;;;;;;5092918;28;20050;-85
2021/12/18 02:51:49;;;;;;;16.23;4.32;;;;;;;;;;5105103;28;20069;-84
2021/12/18 02:54:15;;;;;;;12.57;5.35;;;;;;;;;;5096492;28;20474;-85
2021/12/18 02:56:43;;;;;;;17.38;5.05;;;;;;;;;;5098389;28;20032;-84
2021/12/18 02:59:09;;;;;;;17.30;4.75;;;;;;;;;;5097952;28;20032;-84
2021/12/18 03:01:40;;;;;;;16.83;5.55;;;;;;;;;;5097687;28;20390;-85
2021/12/18 03:25:10;;;;;;;15.95;6.15;;;;;;;;;;5068998;28;20030;-90
2021/12/18 03:27:38;;;;;;;22.83;6.60;;;;;;;;;;5055264;28;20480;-89
2021/12/18 03:30:16;;;;;;;20.30;7.72;;;;;;;;;;5072500;28;20051;-91
2021/12/18 03:32:42;;;;;;;23.35;8.50;;;;;;;;;;5088607;28;20409;-92
2021/12/18 03:35:11;;;;;;;25.33;9.60;;;;;;;;;;5084251;28;20032;-90
2021/12/18 03:37:37;;;;;;;28.40;10.85;;;;;;;;;;5075298;28;20036;-90
2021/12/18 03:40:10;;;;;;;33.10;12.48;;;;;;;;;;5075148;28;20044;-87
2021/12/18 03:42:47;;;;;;;33.72;12.88;;;;;;;;;;5074958;28;20039;-87
2021/12/18 03:45:15;;;;;;;37.65;13.25;;;;;;;;;;5054985;28;20488;-88
2021/12/18 03:47:41;;;;;;;32.63;12.55;;;;;;;;;;5075760;28;20040;-88
2021/12/18 03:50:08;;;;;;;48.25;12.70;;;;;;;;;;5073573;28;20036;-87
2021/12/18 03:52:34;;;;;;;28.83;12.15;;;;;;;;;;5074507;28;20036;-88
2021/12/18 03:55:01;;;;;;;32.42;13.65;;;;;;;;;;5074909;28;20483;-87
2021/12/18 03:57:27;;;;;;;41.53;14.98;;;;;;;;;;5074637;28;20526;-88
2021/12/18 04:00:12;;;;;;;45.65;15.82;;;;;;;;;;5065685;28;20028;-89
2021/12/18 04:02:39;;;;;;;43.15;16.17;;;;;;;;;;5073859;28;20032;-88
2021/12/18 04:05:25;;;;;;;48.35;14.93;;;;;;;;;;5074524;28;20491;-87
2021/12/18 04:08:21;;;;;;;41.83;14.57;;;;;;;;;;5061585;28;20530;-88
2021/12/18 04:10:53;;;;;;;40.78;14.65;;;;;;;;;;5065133;28;20123;-86
2021/12/18 04:13:22;;;;;;;31.15;14.27;;;;;;;;;;5094454;28;20032;-87
2021/12/18 04:15:49;;;;;;;36.20;13.15;;;;;;;;;;5094533;28;20441;-89
2021/12/18 04:18:24;;;;;;;33.97;13.65;;;;;;;;;;5089496;28;20082;-88
2021/12/18 04:23:57;;;;;;;52.53;20.08;;;;;;;;;;5102169;28;20027;-86
2021/12/18 04:26:42;;;;;;;53.95;22.33;;;;;;;;;;5109920;28;20031;-87
2021/12/18 04:29:09;;;;;;;52.80;21.85;;;;;;;;;;5091646;28;20904;-86
2021/12/18 04:31:37;;;;;;;52.05;20.98;;;;;;;;;;5110624;28;20112;-88
2021/12/18 04:34:06;;;;;;;41.22;19.52;;;;;;;;;;5104690;28;20035;-87
2021/12/18 04:36:33;;;;;;;56.60;23.58;;;;;;;;;;5101693;28;20053;-87
2021/12/18 04:38:59;;;;;;;53.67;23.27;;;;;;;;;;5101762;28;20067;-88
2021/12/18 04:47:14;;;;;;;27.75;12.70;;;;;;;;;;5115328;28;20522;-88
2021/12/18 04:49:40;;;;;;;18.58;7.68;;;;;;;;;;5096917;28;20031;-88
2021/12/18 04:55:10;;;;;;;13.98;7.07;;;;;;;;;;5115805;28;20559;-90
2021/12/18 04:57:37;;;;;;;12.68;5.30;;;;;;;;;;5114433;28;20478;-89
2021/12/18 05:00:05;;;;;;;13.25;3.92;;;;;;;;;;5114236;28;20115;-89
2021/12/18 05:02:41;;;;;;;12.25;3.53;;;;;;;;;;5114192;28;20065;-89
2021/12/18 05:05:08;;;;;;;9.95;4.05;;;;;;;;;;5114357;28;20435;-88
2021/12/18 05:07:35;;;;;;;8.90;3.47;;;;;;;;;;5114063;28;20058;-88
2021/12/18 05:10:01;;;;;;;10.52;3.70;;;;;;;;;;5114453;28;20028;-89
2021/12/18 05:12:27;;;;;;;8.68;3.17;;;;;;;;;;5113811;28;20402;-89
2021/12/18 05:14:54;;;;;;;6.22;1.58;;;;;;;;;;5114242;28;20028;-88
2021/12/18 05:17:20;;;;;;;6.50;1.60;;;;;;;;;;5113454;28;20035;-90
2021/12/18 05:19:46;;;;;;;10.32;3.35;;;;;;;;;;5113887;28;20073;-88
2021/12/18 05:22:13;;;;;;;12.57;3.80;;;;;;;;;;5113975;28;20039;-87
2021/12/18 05:24:39;;;;;;;8.93;3.45;;;;;;;;;;5114653;28;20046;-88
2021/12/18 05:27:05;;;;;;;14.63;3.38;;;;;;;;;;5113966;28;20042;-89
2021/12/18 05:29:32;;;;;;;12.10;4.57;;;;;;;;;;5113842;28;20094;-88
2021/12/18 05:31:58;;;;;;;11.48;4.40;;;;;;;;;;5113677;28;20440;-88
2021/12/18 05:34:26;;;;;;;7.40;2.60;;;;;;;;;;5113807;28;20035;-88
2021/12/18 05:39:28;;;;;;;14.40;4.28;;;;;;;;;;5114944;28;20054;-88
2021/12/18 05:41:55;;;;;;;15.38;4.07;;;;;;;;;;5113705;28;20055;-88
2021/12/18 05:44:22;;;;;;;7.55;2.80;;;;;;;;;;5113757;28;20024;-89
2021/12/18 05:46:49;;;;;;;9.98;3.17;;;;;;;;;;5113596;28;20030;-88
2021/12/18 05:49:16;;;;;;;6.78;3.10;;;;;;;;;;5113774;28;20039;-88
2021/12/18 05:51:43;;;;;;;9.95;2.92;;;;;;;;;;5113672;28;20155;-88
2021/12/18 05:54:09;;;;;;;8.80;2.92;;;;;;;;;;5113609;28;20032;-89
2021/12/18 05:56:36;;;;;;;11.93;4.18;;;;;;;;;;5113754;28;20027;-88
2021/12/18 05:59:02;;;;;;;12.70;4.00;;;;;;;;;;5113671;28;20023;-88
2021/12/18 06:01:29;;;;;;;10.60;4.10;;;;;;;;;;5113532;28;20032;-88
2021/12/18 06:03:55;;;;;;;17.52;5.65;;;;;;;;;;5113650;28;20038;-87
2021/12/18 06:06:22;;;;;;;14.77;5.85;;;;;;;;;;5113662;28;20039;-90
2021/12/18 06:08:48;;;;;;;15.18;6.43;;;;;;;;;;5113585;28;20534;-88
2021/12/18 06:11:16;;;;;;;19.38;6.50;;;;;;;;;;5113247;28;20039;-90
2021/12/18 06:13:43;;;;;;;29.98;9.05;;;;;;;;;;5113570;28;20120;-88
2021/12/18 06:16:10;;;;;;;19.00;7.90;;;;;;;;;;5113912;28;20032;-89
2021/12/18 06:18:40;;;;;;;18.55;7.38;;;;;;;;;;5113734;28;20035;-88
2021/12/18 06:21:06;;;;;;;19.15;7.55;;;;;;;;;;5113584;28;20115;-88
2021/12/18 06:23:32;;;;;;;20.05;7.80;;;;;;;;;;5113556;28;20027;-88
2021/12/18 06:25:59;;;;;;;11.38;5.50;;;;;;;;;;5113411;28;20383;-87
2021/12/18 06:28:26;;;;;;;14.15;5.53;;;;;;;;;;5114182;28;20478;-89
2021/12/18 06:30:53;;;;;;;13.77;5.30;;;;;;;;;;5117151;28;20043;-88
2021/12/18 06:33:19;;;;;;;12.70;5.85;;;;;;;;;;5117541;28;20035;-90
2021/12/18 06:35:46;;;;;;;14.90;6.07;;;;;;;;;;5117248;28;20027;-89
2021/12/18 06:38:12;;;;;;;15.35;6.07;;;;;;;;;;5117243;28;20123;-88
2021/12/18 06:40:39;;;;;;;11.73;5.45;;;;;;;;;;5117015;28;20035;-89
2021/12/18 06:43:05;;;;;;;15.20;5.97;;;;;;;;;;5117480;28;20036;-89
2021/12/18 06:45:31;;;;;;;15.55;7.05;;;;;;;;;;5117081;28;20070;-89
2021/12/18 06:47:58;;;;;;;13.90;6.55;;;;;;;;;;5116979;28;20035;-89
2021/12/18 06:50:24;;;;;;;11.93;5.45;;;;;;;;;;5116984;28;20120;-88
2021/12/18 06:52:50;;;;;;;15.57;5.32;;;;;;;;;;5116877;28;20085;-89
2021/12/18 06:55:17;;;;;;;10.60;4.50;;;;;;;;;;5116962;28;20059;-89
2021/12/18 06:57:43;;;;;;;16.58;6.63;;;;;;;;;;5116819;28;20035;-89
2021/12/18 07:00:11;;;;;;;15.80;7.28;;;;;;;;;;5116745;28;20034;-89
2021/12/18 07:02:37;;;;;;;20.50;8.40;;;;;;;;;;5116607;28;20044;-89
2021/12/18 07:05:04;;;;;;;25.30;10.68;;;;;;;;;;5117294;28;20032;-89
2021/12/18 07:07:30;;;;;;;23.38;11.00;;;;;;;;;;5116269;28;20039;-89
2021/12/18 07:09:57;;;;;;;27.02;12.40;;;;;;;;;;5116353;28;20100;-89
2021/12/18 07:12:23;;;;;;;32.90;15.38;;;;;;;;;;5116140;28;20482;-89
2021/12/18 07:14:49;;;;;;;38.15;16.90;;;;;;;;;;5116455;28;20028;-89
2021/12/18 07:17:16;;;;;;;38.13;16.55;;;;;;;;;;5116537;28;20027;-90
2021/12/18 07:19:42;;;;;;;40.60;19.23;;;;;;;;;;5116341;28;20118;-89
2021/12/18 07:22:08;;;;;;;46.58;19.20;;;;;;;;;;5116493;28;20023;-88
2021/12/18 07:24:35;;;;;;;39.92;17.10;;;;;;;;;;5116340;28;20074;-89
2021/12/18 07:27:01;;;;;;;30.38;12.73;;;;;;;;;;5116457;28;20039;-89
2021/12/18 07:29:27;;;;;;;33.70;14.00;;;;;;;;;;5116190;28;20142;-88
2021/12/18 07:31:54;;;;;;;29.42;13.85;;;;;;;;;;5116141;28;20486;-89
2021/12/18 07:34:20;;;;;;;21.88;9.48;;;;;;;;;;5116145;28;20110;-88
2021/12/18 07:36:47;;;;;;;22.90;11.38;;;;;;;;;;5115893;28;20034;-88
2021/12/18 07:39:13;;;;;;;19.38;10.02;;;;;;;;;;5115476;28;20119;-90
2021/12/18 07:41:40;;;;;;;19.00;9.45;;;;;;;;;;5116101;28;20032;-91
2021/12/18 07:44:08;;;;;;;17.88;8.43;;;;;;;;;;5115737;28;20028;-89
2021/12/18 07:46:36;;;;;;;12.07;6.03;;;;;;;;;;5115735;28;20046;-88
2021/12/18 07:49:03;;;;;;;17.77;7.20;;;;;;;;;;5115779;28;20036;-89
2021/12/18 07:51:30;;;;;;;14.32;5.82;;;;;;;;;;5115843;28;20038;-90
2021/12/18 07:53:56;;;;;;;18.17;7.05;;;;;;;;;;5115740;28;20073;-89
2021/12/18 07:56:23;;;;;;;18.20;7.72;;;;;;;;;;5115567;28;20127;-90
2021/12/18 07:58:49;;;;;;;15.63;7.60;;;;;;;;;;5115585;28;20043;-90
2021/12/18 08:01:15;;;;;;;25.13;9.75;;;;;;;;;;5115644;28;20037;-89
2021/12/18 08:03:42;;;;;;;30.15;14.25;;;;;;;;;;5115465;28;20074;-90
2021/12/18 08:06:08;;;;;;;28.33;15.13;;;;;;;;;;5115635;28;20500;-90
2021/12/18 08:08:34;;;;;;;24.17;13.02;;;;;;;;;;5115201;28;20032;-90
2021/12/18 08:11:01;;;;;;;32.50;15.50;;;;;;;;;;5114982;28;20066;-89
2021/12/18 08:13:27;;;;;;;42.60;17.48;;;;;;;;;;5115394;28;20054;-90
2021/12/18 08:15:54;;;;;;;49.88;18.60;;;;;;;;;;5115279;28;20509;-91
2021/12/18 08:18:20;;;;;;;41.60;20.73;;;;;;;;;;5115192;28;20080;-90
2021/12/18 08:20:47;;;;;;;54.88;24.52;;;;;;;;;;5115130;28;20032;-89
2021/12/18 08:23:13;;;;;;;49.05;24.05;;;;;;;;;;5115218;28;20037;-90
2021/12/18 08:25:40;;;;;;;57.47;26.83;;;;;;;;;;5115213;28;20390;-90
2021/12/18 08:28:06;;;;;;;65.28;28.33;;;;;;;;;;5115223;28;20032;-90
2021/12/18 08:30:33;;;;;;;61.67;29.67;;;;;;;;;;5114785;28;20043;-89
2021/12/18 08:33:00;;;;;;;69.13;31.17;;;;;;;;;;5114737;28;20028;-89
2021/12/18 08:35:27;;;;;;;70.25;31.52;;;;;;;;;;5114840;28;20031;-90
2021/12/18 08:37:54;;;;;;;61.00;29.90;;;;;;;;;;5114799;28;20539;-90
2021/12/18 08:40:20;;;;;;;64.38;28.38;;;;;;;;;;5114897;28;20032;-89
2021/12/18 08:42:47;;;;;;;46.47;23.42;;;;;;;;;;5114532;28;20035;-89
2021/12/18 08:45:14;;;;;;;48.30;22.67;;;;;;;;;;5114416;28;20097;-89
2021/12/18 08:47:41;;;;;;;50.85;24.65;;;;;;;;;;5114774;28;20031;-89
2021/12/18 08:50:10;;;;;;;53.97;25.42;;;;;;;;;;5114471;28;20027;-89
2021/12/18 08:52:36;;;;;;;48.50;22.98;;;;;;;;;;5113661;28;20031;-89
2021/12/18 08:55:04;;;;;;;32.53;14.07;;;;;;;;;;5114406;28;20036;-91
2021/12/18 08:57:30;;;;;;;28.75;13.30;;;;;;;;;;5114509;28;20035;-89
2021/12/18 08:59:57;;;;;;;31.55;13.45;;;;;;;;;;5114451;28;20440;-90
2021/12/18 09:02:24;;;;;;;35.60;14.70;;;;;;;;;;5114280;28;20114;-90
2021/12/18 09:04:50;;;;;;;30.98;15.20;;;;;;;;;;5114206;28;20055;-89
2021/12/18 09:07:17;;;;;;;30.02;12.77;;;;;;;;;;5114185;28;20071;-90
2021/12/18 09:09:44;;;;;;;28.48;10.77;;;;;;;;;;5114258;28;20398;-89
2021/12/18 09:12:11;;;;;;;24.77;10.60;;;;;;;;;;5113975;28;20074;-88
2021/12/18 09:14:38;;;;;;;25.25;10.93;;;;;;;;;;5114068;28;20031;-89
2021/12/18 09:17:05;;;;;;;27.05;10.27;;;;;;;;;;5114128;28;20040;-91
2021/12/18 09:19:32;;;;;;;25.88;10.25;;;;;;;;;;5114223;28;20115;-88
2021/12/18 09:21:59;;;;;;;12.98;5.55;;;;;;;;;;5114463;28;20027;-88
2021/12/18 09:24:25;;;;;;;10.43;4.80;;;;;;;;;;5114019;28;20110;-89
2021/12/18 09:26:52;;;;;;;14.75;6.03;;;;;;;;;;5114066;28;20028;-88
2021/12/18 09:29:19;;;;;;;16.35;7.63;;;;;;;;;;5113766;28;20024;-89
2021/12/18 09:31:46;;;;;;;14.23;6.65;;;;;;;;;;5114055;28;20118;-89
2021/12/18 09:34:12;;;;;;;20.50;6.95;;;;;;;;;;5114096;28;20028;-88
2021/12/18 09:36:39;;;;;;;18.45;7.25;;;;;;;;;;5113945;28;20521;-89
2021/12/18 09:39:05;;;;;;;16.02;6.85;;;;;;;;;;5113890;28;20027;-88
2021/12/18 09:41:32;;;;;;;17.48;7.32;;;;;;;;;;5113659;28;20035;-88
2021/12/18 09:43:58;;;;;;;19.52;7.60;;;;;;;;;;5113596;28;20032;-88
2021/12/18 09:46:25;;;;;;;17.63;8.25;;;;;;;;;;5113903;28;20499;-89
2021/12/18 09:48:51;;;;;;;16.35;7.88;;;;;;;;;;5113815;28;20390;-88
2021/12/18 09:51:24;;;;;;;19.85;8.85;;;;;;;;;;5113600;28;20039;-89
2021/12/18 09:53:51;;;;;;;23.35;9.07;;;;;;;;;;5113916;28;20028;-88
2021/12/18 09:56:17;;;;;;;24.35;9.93;;;;;;;;;;5113929;28;20063;-88
2021/12/18 09:58:44;;;;;;;25.17;10.50;;;;;;;;;;5113861;28;20525;-89
2021/12/18 10:01:10;;;;;;;25.73;10.95;;;;;;;;;;5113769;28;20032;-88
2021/12/18 10:03:50;;;;;;;27.95;11.48;;;;;;;;;;5116709;28;20518;-87
2021/12/18 10:06:33;;;;;;;32.47;11.30;;;;;;;;;;5117814;28;20482;-89
2021/12/18 10:09:00;;;;;;;32.05;11.43;;;;;;;;;;5117853;28;20118;-89
2021/12/18 10:11:26;;;;;;;27.80;11.85;;;;;;;;;;5113838;28;20102;-90
2021/12/18 10:13:54;;;;;;;26.75;11.45;;;;;;;;;;5097315;28;20038;-88
2021/12/18 10:16:22;;;;;;;26.35;10.80;;;;;;;;;;5097201;28;20062;-90
2021/12/18 10:18:49;;;;;;;33.00;12.02;;;;;;;;;;5097322;28;20024;-88
2021/12/18 10:21:18;;;;;;;26.77;12.02;;;;;;;;;;5097154;28;20483;-88
2021/12/18 10:23:45;;;;;;;25.45;11.50;;;;;;;;;;5097077;28;20028;-88
2021/12/18 10:26:29;;;;;;;32.67;12.20;;;;;;;;;;5097181;28;20043;-88
2021/12/18 10:28:57;;;;;;;29.27;12.82;;;;;;;;;;5097183;28;20036;-89
2021/12/18 10:31:43;;;;;;;31.65;11.75;;;;;;;;;;5096910;28;20040;-88
2021/12/18 10:34:14;;;;;;;35.75;13.00;;;;;;;;;;5096765;28;20029;-88
2021/12/18 10:36:40;;;;;;;37.50;13.68;;;;;;;;;;5096974;28;20527;-89
2021/12/18 10:39:06;;;;;;;35.72;12.82;;;;;;;;;;5096868;28;20067;-87
2021/12/18 10:41:37;;;;;;;32.63;13.88;;;;;;;;;;5096729;28;20559;-88
2021/12/18 10:44:09;;;;;;;33.20;13.07;;;;;;;;;;5096769;28;20085;-88
2021/12/18 10:46:43;;;;;;;35.65;14.05;;;;;;;;;;5096438;28;20039;-89
2021/12/18 10:49:10;;;;;;;40.45;15.38;;;;;;;;;;5096342;28;20547;-88
2021/12/18 10:51:38;;;;;;;38.92;16.30;;;;;;;;;;5096479;28;20090;-87
2021/12/18 10:54:09;;;;;;;49.58;18.00;;;;;;;;;;5096365;28;20032;-88
2021/12/18 10:56:42;;;;;;;54.88;20.55;;;;;;;;;;5079672;28;20486;-88
2021/12/18 10:59:31;;;;;;;76.88;27.25;;;;;;;;;;5096324;28;20038;-89
2021/12/18 11:01:59;;;;;;;71.20;27.77;;;;;;;;;;5096433;28;20055;-88
2021/12/18 11:04:44;;;;;;;73.22;27.58;;;;;;;;;;5097560;28;20059;-88
2021/12/18 11:07:22;;;;;;;69.18;26.55;;;;;;;;;;5096034;28;20419;-87
2021/12/18 11:10:11;;;;;;;68.20;26.33;;;;;;;;;;5095919;28;20166;-88
2021/12/18 11:15:20;;;;;;;81.60;26.60;;;;;;;;;;5117167;28;20435;-89
2021/12/18 11:17:47;;;;;;;70.82;27.70;;;;;;;;;;5116231;28;20114;-89
2021/12/18 11:20:13;;;;;;;76.10;33.65;;;;;;;;;;5116330;28;20500;-89
2021/12/18 11:22:41;;;;;;;124.07;48.80;;;;;;;;;;5116260;28;20035;-87
2021/12/18 11:25:09;;;;;;;119.30;47.03;;;;;;;;;;5116303;28;20134;-89
2021/12/18 11:27:36;;;;;;;115.40;45.72;;;;;;;;;;5116127;28;20028;-89
2021/12/18 11:30:03;;;;;;;103.10;40.83;;;;;;;;;;5115863;28;20120;-89
2021/12/18 11:32:30;;;;;;;95.25;40.47;;;;;;;;;;5116077;28;20024;-89
2021/12/18 11:34:59;;;;;;;82.50;33.03;;;;;;;;;;5115982;28;20028;-87
2021/12/18 11:37:26;;;;;;;77.65;30.15;;;;;;;;;;5115843;28;20063;-87
2021/12/18 11:39:56;;;;;;;57.55;24.73;;;;;;;;;;5116067;28;20177;-88
2021/12/18 11:42:28;;;;;;;66.35;25.00;;;;;;;;;;5115943;28;20449;-88
2021/12/18 11:44:56;;;;;;;53.00;23.90;;;;;;;;;;5115714;28;20028;-88
2021/12/18 11:47:29;;;;;;;49.50;21.88;;;;;;;;;;5115779;28;20047;-89
2021/12/18 11:49:57;;;;;;;56.47;23.88;;;;;;;;;;5115793;28;20062;-89
2021/12/18 11:52:23;;;;;;;54.88;22.27;;;;;;;;;;5115766;28;20439;-88
2021/12/18 11:54:57;;;;;;;45.28;21.05;;;;;;;;;;5115776;28;20114;-88
2021/12/18 11:57:44;;;;;;;45.38;20.70;;;;;;;;;;5115567;28;20501;-88
2021/12/18 12:00:22;;;;;;;47.97;20.48;;;;;;;;;;5115602;28;20114;-88
2021/12/18 12:02:51;;;;;;;43.13;19.27;;;;;;;;;;5115522;28;20120;-88
2021/12/18 12:05:19;;;;;;;41.63;17.95;;;;;;;;;;5115604;28;20032;-88
2021/12/18 12:07:45;;;;;;;40.97;18.27;;;;;;;;;;5115405;28;20036;-88
2021/12/18 12:10:22;;;;;;;47.90;18.20;;;;;;;;;;5115242;28;20035;-88
2021/12/18 12:12:53;;;;;;;45.03;18.15;;;;;;;;;;5115077;28;20502;-87
2021/12/18 12:15:21;;;;;;;35.30;15.75;;;;;;;;;;5115236;28;20500;-89
2021/12/18 12:17:56;;;;;;;40.10;16.63;;;;;;;;;;5115139;28;20028;-88
2021/12/18 12:20:32;;;;;;;42.17;18.55;;;;;;;;;;5115322;28;20036;-87
2021/12/18 12:23:01;;;;;;;46.38;19.73;;;;;;;;;;5115072;28;20536;-88
2021/12/18 12:25:34;;;;;;;53.05;22.08;;;;;;;;;;5114980;28;20032;-88
2021/12/18 12:28:01;;;;;;;50.35;22.67;;;;;;;;;;5115101;28;20083;-87
2021/12/18 12:30:30;;;;;;;56.70;24.75;;;;;;;;;;5114981;28;20042;-87
2021/12/18 12:33:04;;;;;;;77.43;31.08;;;;;;;;;;5115060;28;20375;-88
2021/12/18 12:35:31;;;;;;;80.50;32.53;;;;;;;;;;5114842;28;20066;-88
2021/12/18 12:37:57;;;;;;;77.03;31.15;;;;;;;;;;5114693;28;20054;-86
2021/12/18 12:40:35;;;;;;;90.53;34.75;;;;;;;;;;5114790;28;20040;-88
2021/12/18 12:43:15;;;;;;;90.75;36.58;;;;;;;;;;5114931;28;20036;-88
2021/12/18 12:45:43;;;;;;;105.25;36.45;;;;;;;;;;5114500;28;20043;-89
2021/12/18 12:48:10;;;;;;;97.60;36.92;;;;;;;;;;5114643;28;20371;-87
2021/12/18 12:50:36;;;;;;;90.85;34.83;;;;;;;;;;5114433;28;20031;-88
2021/12/18 12:53:04;;;;;;;78.55;31.67;;;;;;;;;;5114507;28;20059;-87
2021/12/18 12:55:32;;;;;;;78.93;32.70;;;;;;;;;;5080627;28;20376;-87
2021/12/18 12:58:00;;;;;;;82.47;34.80;;;;;;;;;;5114405;28;20541;-88
2021/12/18 13:00:29;;;;;;;91.82;38.00;;;;;;;;;;5114217;28;20078;-87
2021/12/18 13:02:57;;;;;;;89.22;35.25;;;;;;;;;;5115565;28;20043;-87
2021/12/18 13:05:24;;;;;;;95.22;35.90;;;;;;;;;;5114218;28;20043;-88
2021/12/18 13:07:50;;;;;;;84.18;34.35;;;;;;;;;;5114069;28;20063;-88
2021/12/18 13:10:17;;;;;;;80.65;35.22;;;;;;;;;;5114054;28;20059;-87
2021/12/18 13:12:57;;;;;;;88.28;36.10;;;;;;;;;;5113799;28;20106;-87
2021/12/18 13:15:25;;;;;;;96.78;38.10;;;;;;;;;;5114014;28;20482;-87
2021/12/18 13:18:08;;;;;;;89.10;35.75;;;;;;;;;;5114017;28;20031;-87
2021/12/18 13:20:44;;;;;;;90.50;37.60;;;;;;;;;;5115147;28;20024;-88
2021/12/18 13:23:17;;;;;;;88.88;35.22;;;;;;;;;;5114169;28;20382;-88
2021/12/18 13:25:54;;;;;;;93.03;37.58;;;;;;;;;;5113908;28;20032;-88
2021/12/18 13:28:24;;;;;;;85.15;34.90;;;;;;;;;;5114021;28;20381;-87
2021/12/18 13:30:52;;;;;;;95.47;40.75;;;;;;;;;;5113771;28;20394;-87
2021/12/18 13:33:23;;;;;;;101.47;39.92;;;;;;;;;;5113854;28;20027;-88
2021/12/18 13:35:54;;;;;;;93.13;38.10;;;;;;;;;;5113711;28;20077;-87
2021/12/18 13:38:22;;;;;;;88.40;36.17;;;;;;;;;;5113293;28;20032;-87
2021/12/18 13:40:50;;;;;;;88.10;36.90;;;;;;;;;;5113839;28;20088;-87
2021/12/18 13:43:17;;;;;;;83.65;32.28;;;;;;;;;;5113668;28;20386;-88
2021/12/18 13:45:53;;;;;;;59.70;26.90;;;;;;;;;;5113560;28;20039;-88
2021/12/18 13:48:20;;;;;;;63.17;25.20;;;;;;;;;;5113732;28;20482;-88
2021/12/18 13:51:13;;;;;;;58.58;22.67;;;;;;;;;;5113581;28;20031;-87
2021/12/18 13:53:51;;;;;;;50.20;20.80;;;;;;;;;;5093232;28;20107;-87
2021/12/18 13:56:18;;;;;;;55.22;23.70;;;;;;;;;;5113396;28;20058;-87
2021/12/18 13:58:46;;;;;;;72.18;30.33;;;;;;;;;;5113490;28;20474;-88
2021/12/18 14:01:20;;;;;;;77.00;32.50;;;;;;;;;;5113689;28;20036;-88
2021/12/18 14:03:48;;;;;;;72.75;30.13;;;;;;;;;;5113396;28;20039;-88
2021/12/18 14:06:20;;;;;;;67.28;26.98;;;;;;;;;;5113612;28;20372;-89
2021/12/18 14:08:49;;;;;;;62.58;24.67;;;;;;;;;;5113378;28;20096;-87
2021/12/18 14:11:17;;;;;;;49.05;22.25;;;;;;;;;;5113111;28;20096;-87
2021/12/18 14:13:45;;;;;;;52.58;21.65;;;;;;;;;;5113516;28;20039;-87
2021/12/18 14:16:11;;;;;;;57.88;21.63;;;;;;;;;;5113546;28;20084;-87
2021/12/18 14:18:42;;;;;;;68.53;27.35;;;;;;;;;;5113442;28;20028;-88
2021/12/18 14:21:08;;;;;;;70.47;31.50;;;;;;;;;;5113168;28;20032;-87
2021/12/18 14:23:39;;;;;;;93.60;35.80;;;;;;;;;;5113459;28;20032;-87
2021/12/18 14:26:20;;;;;;;90.05;36.75;;;;;;;;;;5113427;28;20031;-87
2021/12/18 14:28:46;;;;;;;88.93;41.30;;;;;;;;;;5113197;28;20027;-88
2021/12/18 14:31:28;;;;;;;88.10;37.78;;;;;;;;;;5113174;28;20039;-87
2021/12/18 14:33:56;;;;;;;85.28;37.35;;;;;;;;;;5114309;28;20028;-88
2021/12/18 14:36:40;;;;;;;81.07;33.78;;;;;;;;;;5113292;28;20058;-88
2021/12/18 14:39:07;;;;;;;77.07;31.23;;;;;;;;;;5113318;28;20058;-87
2021/12/18 14:41:35;;;;;;;66.18;29.00;;;;;;;;;;5113224;28;20035;-87
2021/12/18 14:44:05;;;;;;;73.60;29.15;;;;;;;;;;5112973;28;20031;-86
2021/12/18 14:46:34;;;;;;;65.70;28.33;;;;;;;;;;5113107;28;20032;-87
2021/12/18 14:49:11;;;;;;;65.55;27.88;;;;;;;;;;5113252;28;20059;-87
2021/12/18 14:51:38;;;;;;;69.00;26.88;;;;;;;;;;5116892;28;20040;-87
2021/12/18 14:54:06;;;;;;;72.93;25.38;;;;;;;;;;5116786;28;20028;-87
2021/12/18 14:56:32;;;;;;;63.03;22.98;;;;;;;;;;5116695;28;20084;-86
2021/12/18 14:58:58;;;;;;;58.22;23.55;;;;;;;;;;5116589;28;20027;-88
2021/12/18 15:01:25;;;;;;;55.20;24.60;;;;;;;;;;5116667;28;20042;-87
2021/12/18 15:03:53;;;;;;;64.07;25.95;;;;;;;;;;5116517;28;20038;-87
2021/12/18 15:06:26;;;;;;;82.22;30.83;;;;;;;;;;5116481;28;20130;-87
2021/12/18 15:09:00;;;;;;;89.00;32.05;;;;;;;;;;5116374;28;20502;-87
2021/12/18 15:11:35;;;;;;;80.10;30.58;;;;;;;;;;5115972;28;20035;-87
2021/12/18 15:14:05;;;;;;;70.28;29.23;;;;;;;;;;5117544;28;20023;-87
2021/12/18 15:16:32;;;;;;;69.47;28.40;;;;;;;;;;5116518;28;20027;-88
2021/12/18 15:19:01;;;;;;;61.60;26.27;;;;;;;;;;5116414;28;20028;-88
2021/12/18 15:21:28;;;;;;;58.47;23.67;;;;;;;;;;5116267;28;20035;-88
2021/12/18 15:23:55;;;;;;;63.17;22.67;;;;;;;;;;5116104;28;20038;-87
2021/12/18 15:26:21;;;;;;;54.30;24.45;;;;;;;;;;5116600;28;20093;-88
2021/12/18 15:28:47;;;;;;;58.42;21.63;;;;;;;;;;5116588;28;20386;-88
2021/12/18 15:31:14;;;;;;;47.28;17.25;;;;;;;;;;5116238;28;20486;-88
2021/12/18 15:33:41;;;;;;;39.30;15.15;;;;;;;;;;5116147;28;20055;-88
2021/12/18 15:36:11;;;;;;;35.88;13.85;;;;;;;;;;5117012;28;20382;-87
2021/12/18 15:38:37;;;;;;;35.17;13.77;;;;;;;;;;5116041;28;20430;-87
2021/12/18 15:41:05;;;;;;;30.52;12.88;;;;;;;;;;5116226;28;20035;-87
2021/12/18 15:43:34;;;;;;;39.05;14.70;;;;;;;;;;5116203;28;20035;-88
2021/12/18 15:46:01;;;;;;;35.53;16.00;;;;;;;;;;5116490;28;20122;-87